sensor_id;sensor_type;location;lat;lon;timestamp;temperature;humidity
75262;DHT22;63859;51.064;4.580;2024-03-08T00:01:10;5.00;99.90
75262;DHT22;63859;51.064;4.580;2024-03-08T00:03:35;5.00;99.90
75262;DHT22;63859;51.064;4.580;2024-03-08T00:06:02;4.90;99.90
75262;DHT22;63859;51.064;4.580;2024-03-08T00:08:28;4.90;99.90
75262;DHT22;63859;51.064;4.580;2024-03-08T00:10:53;4.90;99.90
75262;DHT22;63859;51.064;4.580;2024-03-08T00:13:19;4.90;99.90
75262;DHT22;63859;51.064;4.580;2024-03-08T00:15:45;4.90;99.90
75262;DHT22;63859;51.064;4.580;2024-03-08T00:18:11;4.90;99.90
75262;DHT22;63859;51.064;4.580;2024-03-08T00:20:37;4.90;99.90
75262;DHT22;63859;51.064;4.580;2024-03-08T00:23:02;4.80;99.90
75262;DHT22;63859;51.064;4.580;2024-03-08T00:25:28;4.80;99.90
75262;DHT22;63859;51.064;4.580;2024-03-08T00:27:54;4.80;99.90
75262;DHT22;63859;51.064;4.580;2024-03-08T00:30:23;4.80;99.90
75262;DHT22;63859;51.064;4.580;2024-03-08T00:32:50;4.80;99.90
75262;DHT22;63859;51.064;4.580;2024-03-08T00:35:16;4.80;99.90
75262;DHT22;63859;51.064;4.580;2024-03-08T00:37:42;4.70;99.90
75262;DHT22;63859;51.064;4.580;2024-03-08T00:40:08;4.70;99.90
75262;DHT22;63859;51.064;4.580;2024-03-08T00:42:34;4.70;99.90
75262;DHT22;63859;51.064;4.580;2024-03-08T00:45:01;4.70;99.90
75262;DHT22;63859;51.064;4.580;2024-03-08T00:47:26;4.70;99.90
75262;DHT22;63859;51.064;4.580;2024-03-08T00:49:52;4.70;99.90
75262;DHT22;63859;51.064;4.580;2024-03-08T00:52:18;4.60;99.90
75262;DHT22;63859;51.064;4.580;2024-03-08T00:54:44;4.60;99.90
75262;DHT22;63859;51.064;4.580;2024-03-08T00:57:11;4.60;99.90
75262;DHT22;63859;51.064;4.580;2024-03-08T00:59:38;4.40;99.90
75262;DHT22;63859;51.064;4.580;2024-03-08T01:02:03;4.60;99.90
75262;DHT22;63859;51.064;4.580;2024-03-08T01:04:29;4.50;99.90
75262;DHT22;63859;51.064;4.580;2024-03-08T01:06:56;4.50;99.90
75262;DHT22;63859;51.064;4.580;2024-03-08T01:09:23;4.50;99.90
75262;DHT22;63859;51.064;4.580;2024-03-08T01:11:48;4.50;99.90
75262;DHT22;63859;51.064;4.580;2024-03-08T01:14:15;4.40;99.90
75262;DHT22;63859;51.064;4.580;2024-03-08T01:16:40;4.40;99.90
75262;DHT22;63859;51.064;4.580;2024-03-08T01:19:06;4.40;99.90
75262;DHT22;63859;51.064;4.580;2024-03-08T01:21:32;4.40;99.90
75262;DHT22;63859;51.064;4.580;2024-03-08T01:23:58;4.40;99.90
75262;DHT22;63859;51.064;4.580;2024-03-08T01:26:24;4.40;99.90
75262;DHT22;63859;51.064;4.580;2024-03-08T01:28:50;4.40;99.90
75262;DHT22;63859;51.064;4.580;2024-03-08T01:31:15;4.40;99.90
75262;DHT22;63859;51.064;4.580;2024-03-08T01:33:41;4.30;99.90
75262;DHT22;63859;51.064;4.580;2024-03-08T01:36:07;4.40;99.90
75262;DHT22;63859;51.064;4.580;2024-03-08T01:38:33;4.30;99.90
75262;DHT22;63859;51.064;4.580;2024-03-08T01:40:59;4.30;99.90
75262;DHT22;63859;51.064;4.580;2024-03-08T01:43:28;4.30;99.90
75262;DHT22;63859;51.064;4.580;2024-03-08T01:48:30;4.20;99.90
75262;DHT22;63859;51.064;4.580;2024-03-08T01:50:57;4.20;99.90
75262;DHT22;63859;51.064;4.580;2024-03-08T01:55:54;4.10;99.90
75262;DHT22;63859;51.064;4.580;2024-03-08T01:58:22;4.10;99.90
75262;DHT22;63859;51.064;4.580;2024-03-08T02:00:48;4.10;99.90
75262;DHT22;63859;51.064;4.580;2024-03-08T02:03:18;4.10;99.90
75262;DHT22;63859;51.064;4.580;2024-03-08T02:05:43;4.10;99.90
75262;DHT22;63859;51.064;4.580;2024-03-08T02:08:10;4.00;99.90
75262;DHT22;63859;51.064;4.580;2024-03-08T02:13:11;4.00;99.90
75262;DHT22;63859;51.064;4.580;2024-03-08T02:15:55;4.00;99.90
75262;DHT22;63859;51.064;4.580;2024-03-08T02:20:49;3.90;99.90
75262;DHT22;63859;51.064;4.580;2024-03-08T02:23:16;3.90;99.90
75262;DHT22;63859;51.064;4.580;2024-03-08T02:25:42;3.90;99.90
75262;DHT22;63859;51.064;4.580;2024-03-08T02:28:10;3.90;99.90
75262;DHT22;63859;51.064;4.580;2024-03-08T02:30:36;3.90;99.90
75262;DHT22;63859;51.064;4.580;2024-03-08T02:33:02;3.80;99.90
75262;DHT22;63859;51.064;4.580;2024-03-08T02:35:29;3.80;99.90
75262;DHT22;63859;51.064;4.580;2024-03-08T02:37:55;3.80;99.90
75262;DHT22;63859;51.064;4.580;2024-03-08T02:40:21;3.80;99.90
75262;DHT22;63859;51.064;4.580;2024-03-08T02:42:47;3.80;99.90
75262;DHT22;63859;51.064;4.580;2024-03-08T02:45:13;3.70;99.90
75262;DHT22;63859;51.064;4.580;2024-03-08T02:47:39;3.70;99.90
75262;DHT22;63859;51.064;4.580;2024-03-08T02:50:05;3.70;99.90
75262;DHT22;63859;51.064;4.580;2024-03-08T02:52:34;3.70;99.90
75262;DHT22;63859;51.064;4.580;2024-03-08T02:55:01;3.70;99.90
75262;DHT22;63859;51.064;4.580;2024-03-08T02:57:27;3.70;99.90
75262;DHT22;63859;51.064;4.580;2024-03-08T02:59:53;3.60;99.90
75262;DHT22;63859;51.064;4.580;2024-03-08T03:02:19;3.60;99.90
75262;DHT22;63859;51.064;4.580;2024-03-08T03:04:45;3.60;99.90
75262;DHT22;63859;51.064;4.580;2024-03-08T03:07:11;3.60;99.90
75262;DHT22;63859;51.064;4.580;2024-03-08T03:09:37;3.60;99.90
75262;DHT22;63859;51.064;4.580;2024-03-08T03:12:02;3.60;99.90
75262;DHT22;63859;51.064;4.580;2024-03-08T03:14:28;3.50;99.90
75262;DHT22;63859;51.064;4.580;2024-03-08T03:16:54;3.50;99.90
75262;DHT22;63859;51.064;4.580;2024-03-08T03:19:20;3.50;99.90
75262;DHT22;63859;51.064;4.580;2024-03-08T03:21:46;3.50;99.90
75262;DHT22;63859;51.064;4.580;2024-03-08T03:24:12;3.40;99.90
75262;DHT22;63859;51.064;4.580;2024-03-08T03:26:41;3.40;99.90
75262;DHT22;63859;51.064;4.580;2024-03-08T03:29:09;3.40;99.90
75262;DHT22;63859;51.064;4.580;2024-03-08T03:31:36;3.40;99.90
75262;DHT22;63859;51.064;4.580;2024-03-08T03:34:02;3.40;99.90
75262;DHT22;63859;51.064;4.580;2024-03-08T03:36:29;3.40;99.90
75262;DHT22;63859;51.064;4.580;2024-03-08T03:38:55;3.30;99.90
75262;DHT22;63859;51.064;4.580;2024-03-08T03:41:31;3.30;99.90
75262;DHT22;63859;51.064;4.580;2024-03-08T03:43:56;3.30;99.90
75262;DHT22;63859;51.064;4.580;2024-03-08T03:46:23;3.30;99.90
75262;DHT22;63859;51.064;4.580;2024-03-08T03:48:48;3.30;99.90
75262;DHT22;63859;51.064;4.580;2024-03-08T03:51:14;3.30;99.90
75262;DHT22;63859;51.064;4.580;2024-03-08T03:53:41;3.20;99.90
75262;DHT22;63859;51.064;4.580;2024-03-08T03:56:07;3.20;99.90
75262;DHT22;63859;51.064;4.580;2024-03-08T03:58:33;3.20;99.90
75262;DHT22;63859;51.064;4.580;2024-03-08T04:00:59;3.20;99.90
75262;DHT22;63859;51.064;4.580;2024-03-08T04:03:24;3.20;99.90
75262;DHT22;63859;51.064;4.580;2024-03-08T04:08:16;3.10;99.90
75262;DHT22;63859;51.064;4.580;2024-03-08T04:10:42;3.10;99.90
75262;DHT22;63859;51.064;4.580;2024-03-08T04:13:08;3.10;99.90
75262;DHT22;63859;51.064;4.580;2024-03-08T04:15:35;3.10;99.90
75262;DHT22;63859;51.064;4.580;2024-03-08T04:18:01;3.00;99.90
75262;DHT22;63859;51.064;4.580;2024-03-08T04:20:27;3.10;99.90
75262;DHT22;63859;51.064;4.580;2024-03-08T04:22:53;3.00;99.90
75262;DHT22;63859;51.064;4.580;2024-03-08T04:25:18;3.00;99.90
75262;DHT22;63859;51.064;4.580;2024-03-08T04:30:12;3.10;99.90
75262;DHT22;63859;51.064;4.580;2024-03-08T04:32:38;3.00;99.90
75262;DHT22;63859;51.064;4.580;2024-03-08T04:35:04;3.00;99.90
75262;DHT22;63859;51.064;4.580;2024-03-08T04:37:30;3.00;99.90
75262;DHT22;63859;51.064;4.580;2024-03-08T04:39:55;3.00;99.90
75262;DHT22;63859;51.064;4.580;2024-03-08T04:42:22;3.00;99.90
75262;DHT22;63859;51.064;4.580;2024-03-08T04:44:48;2.90;99.90
75262;DHT22;63859;51.064;4.580;2024-03-08T04:47:13;2.90;99.90
75262;DHT22;63859;51.064;4.580;2024-03-08T04:49:39;2.90;99.90
75262;DHT22;63859;51.064;4.580;2024-03-08T04:52:05;2.90;99.90
75262;DHT22;63859;51.064;4.580;2024-03-08T04:54:32;2.90;99.90
75262;DHT22;63859;51.064;4.580;2024-03-08T04:56:58;2.90;99.90
75262;DHT22;63859;51.064;4.580;2024-03-08T04:59:26;2.90;99.90
75262;DHT22;63859;51.064;4.580;2024-03-08T05:01:52;2.80;99.90
75262;DHT22;63859;51.064;4.580;2024-03-08T05:04:18;2.80;99.90
75262;DHT22;63859;51.064;4.580;2024-03-08T05:06:44;2.80;99.90
75262;DHT22;63859;51.064;4.580;2024-03-08T05:09:09;2.80;99.90
75262;DHT22;63859;51.064;4.580;2024-03-08T05:11:45;2.80;99.90
75262;DHT22;63859;51.064;4.580;2024-03-08T05:19:18;2.70;99.90
75262;DHT22;63859;51.064;4.580;2024-03-08T05:21:45;2.70;99.90
75262;DHT22;63859;51.064;4.580;2024-03-08T05:24:11;2.70;99.90
75262;DHT22;63859;51.064;4.580;2024-03-08T05:26:37;2.70;99.90
75262;DHT22;63859;51.064;4.580;2024-03-08T05:29:05;2.60;99.90
75262;DHT22;63859;51.064;4.580;2024-03-08T05:31:47;2.60;99.90
75262;DHT22;63859;51.064;4.580;2024-03-08T05:34:14;2.60;99.90
75262;DHT22;63859;51.064;4.580;2024-03-08T05:36:43;2.60;99.90
75262;DHT22;63859;51.064;4.580;2024-03-08T05:39:11;2.60;99.90
75262;DHT22;63859;51.064;4.580;2024-03-08T05:41:38;2.60;99.90
75262;DHT22;63859;51.064;4.580;2024-03-08T05:44:04;2.60;99.90
75262;DHT22;63859;51.064;4.580;2024-03-08T05:46:30;2.50;99.90
75262;DHT22;63859;51.064;4.580;2024-03-08T05:48:56;2.50;99.90
75262;DHT22;63859;51.064;4.580;2024-03-08T05:51:24;2.50;99.90
75262;DHT22;63859;51.064;4.580;2024-03-08T05:53:50;2.50;99.90
75262;DHT22;63859;51.064;4.580;2024-03-08T05:56:19;2.50;99.90
75262;DHT22;63859;51.064;4.580;2024-03-08T05:58:44;2.50;99.90
75262;DHT22;63859;51.064;4.580;2024-03-08T06:01:11;2.50;99.90
75262;DHT22;63859;51.064;4.580;2024-03-08T06:03:38;2.50;99.90
75262;DHT22;63859;51.064;4.580;2024-03-08T06:06:13;2.50;99.90
75262;DHT22;63859;51.064;4.580;2024-03-08T06:08:40;2.50;99.90
75262;DHT22;63859;51.064;4.580;2024-03-08T06:11:05;2.50;99.90
75262;DHT22;63859;51.064;4.580;2024-03-08T06:13:32;2.40;99.90
75262;DHT22;63859;51.064;4.580;2024-03-08T06:15:59;2.40;99.90
75262;DHT22;63859;51.064;4.580;2024-03-08T06:18:26;2.40;99.90
75262;DHT22;63859;51.064;4.580;2024-03-08T06:20:52;2.50;99.90
75262;DHT22;63859;51.064;4.580;2024-03-08T06:23:18;2.50;99.90
75262;DHT22;63859;51.064;4.580;2024-03-08T06:25:44;2.50;99.90
75262;DHT22;63859;51.064;4.580;2024-03-08T06:28:10;2.40;99.90
75262;DHT22;63859;51.064;4.580;2024-03-08T06:30:36;2.40;99.90
75262;DHT22;63859;51.064;4.580;2024-03-08T06:33:01;2.40;99.90
75262;DHT22;63859;51.064;4.580;2024-03-08T06:35:27;2.40;99.90
75262;DHT22;63859;51.064;4.580;2024-03-08T06:40:19;2.40;99.90
75262;DHT22;63859;51.064;4.580;2024-03-08T06:42:45;2.40;99.90
75262;DHT22;63859;51.064;4.580;2024-03-08T06:45:11;2.50;99.90
75262;DHT22;63859;51.064;4.580;2024-03-08T06:47:38;2.50;99.90
75262;DHT22;63859;51.064;4.580;2024-03-08T06:52:29;2.50;99.90
75262;DHT22;63859;51.064;4.580;2024-03-08T06:54:55;2.50;99.90
75262;DHT22;63859;51.064;4.580;2024-03-08T06:57:22;2.60;99.90
75262;DHT22;63859;51.064;4.580;2024-03-08T06:59:49;2.60;99.90
75262;DHT22;63859;51.064;4.580;2024-03-08T07:02:15;2.60;99.90
75262;DHT22;63859;51.064;4.580;2024-03-08T07:04:40;2.60;99.90
75262;DHT22;63859;51.064;4.580;2024-03-08T07:07:07;2.70;99.90
75262;DHT22;63859;51.064;4.580;2024-03-08T07:09:36;2.70;99.90
75262;DHT22;63859;51.064;4.580;2024-03-08T07:16:54;2.80;99.90
75262;DHT22;63859;51.064;4.580;2024-03-08T07:19:19;2.90;99.90
75262;DHT22;63859;51.064;4.580;2024-03-08T07:21:47;2.90;99.90
75262;DHT22;63859;51.064;4.580;2024-03-08T07:24:13;3.00;99.90
75262;DHT22;63859;51.064;4.580;2024-03-08T07:26:42;3.00;99.90
75262;DHT22;63859;51.064;4.580;2024-03-08T07:29:08;3.00;99.90
75262;DHT22;63859;51.064;4.580;2024-03-08T07:31:34;3.10;99.90
75262;DHT22;63859;51.064;4.580;2024-03-08T07:36:29;3.20;99.90
75262;DHT22;63859;51.064;4.580;2024-03-08T07:38:54;3.30;99.90
75262;DHT22;63859;51.064;4.580;2024-03-08T07:41:20;3.30;99.90
75262;DHT22;63859;51.064;4.580;2024-03-08T07:43:46;3.40;99.90
75262;DHT22;63859;51.064;4.580;2024-03-08T07:46:12;3.40;99.90
75262;DHT22;63859;51.064;4.580;2024-03-08T07:48:38;3.50;99.90
75262;DHT22;63859;51.064;4.580;2024-03-08T07:51:05;3.60;99.90
75262;DHT22;63859;51.064;4.580;2024-03-08T07:53:31;3.60;99.90
75262;DHT22;63859;51.064;4.580;2024-03-08T07:55:57;3.70;99.90
75262;DHT22;63859;51.064;4.580;2024-03-08T07:58:22;3.70;99.90
75262;DHT22;63859;51.064;4.580;2024-03-08T08:00:49;3.80;99.90
75262;DHT22;63859;51.064;4.580;2024-03-08T08:03:15;3.90;99.90
75262;DHT22;63859;51.064;4.580;2024-03-08T08:05:41;4.00;99.90
75262;DHT22;63859;51.064;4.580;2024-03-08T08:08:10;4.10;99.90
75262;DHT22;63859;51.064;4.580;2024-03-08T08:10:37;4.10;99.90
75262;DHT22;63859;51.064;4.580;2024-03-08T08:13:03;4.20;99.90
75262;DHT22;63859;51.064;4.580;2024-03-08T08:15:30;4.30;99.90
75262;DHT22;63859;51.064;4.580;2024-03-08T08:17:55;4.30;99.90
75262;DHT22;63859;51.064;4.580;2024-03-08T08:20:21;4.40;99.90
75262;DHT22;63859;51.064;4.580;2024-03-08T08:22:48;4.50;99.90
75262;DHT22;63859;51.064;4.580;2024-03-08T08:25:15;4.50;99.90
75262;DHT22;63859;51.064;4.580;2024-03-08T08:27:41;4.60;99.90
75262;DHT22;63859;51.064;4.580;2024-03-08T08:30:10;4.70;99.90
75262;DHT22;63859;51.064;4.580;2024-03-08T08:35:06;4.90;99.90
75262;DHT22;63859;51.064;4.580;2024-03-08T08:37:33;5.00;99.90
75262;DHT22;63859;51.064;4.580;2024-03-08T08:40:01;5.00;99.90
75262;DHT22;63859;51.064;4.580;2024-03-08T08:42:31;5.10;99.90
75262;DHT22;63859;51.064;4.580;2024-03-08T08:44:57;5.20;99.90
75262;DHT22;63859;51.064;4.580;2024-03-08T08:47:23;5.30;99.90
75262;DHT22;63859;51.064;4.580;2024-03-08T08:49:49;5.40;99.90
75262;DHT22;63859;51.064;4.580;2024-03-08T08:52:16;5.40;99.90
75262;DHT22;63859;51.064;4.580;2024-03-08T08:54:42;5.50;99.90
75262;DHT22;63859;51.064;4.580;2024-03-08T08:57:08;6.30;99.90
75262;DHT22;63859;51.064;4.580;2024-03-08T08:59:34;5.70;99.90
75262;DHT22;63859;51.064;4.580;2024-03-08T09:02:06;5.80;99.90
75262;DHT22;63859;51.064;4.580;2024-03-08T09:04:32;5.90;99.90
75262;DHT22;63859;51.064;4.580;2024-03-08T09:06:58;5.90;99.90
75262;DHT22;63859;51.064;4.580;2024-03-08T09:09:24;6.00;99.90
75262;DHT22;63859;51.064;4.580;2024-03-08T09:11:51;6.10;99.90
75262;DHT22;63859;51.064;4.580;2024-03-08T09:14:17;6.10;99.90
75262;DHT22;63859;51.064;4.580;2024-03-08T09:16:42;6.20;99.90
75262;DHT22;63859;51.064;4.580;2024-03-08T09:19:08;6.20;99.90
75262;DHT22;63859;51.064;4.580;2024-03-08T09:21:36;6.30;99.90
75262;DHT22;63859;51.064;4.580;2024-03-08T09:24:02;6.40;99.90
75262;DHT22;63859;51.064;4.580;2024-03-08T09:26:28;6.50;99.90
75262;DHT22;63859;51.064;4.580;2024-03-08T09:28:54;6.60;99.90
75262;DHT22;63859;51.064;4.580;2024-03-08T09:31:22;6.70;99.90
75262;DHT22;63859;51.064;4.580;2024-03-08T09:33:48;6.70;99.90
75262;DHT22;63859;51.064;4.580;2024-03-08T09:41:06;7.00;99.90
75262;DHT22;63859;51.064;4.580;2024-03-08T09:45:59;7.10;99.90
75262;DHT22;63859;51.064;4.580;2024-03-08T09:48:26;7.20;99.90
75262;DHT22;63859;51.064;4.580;2024-03-08T09:50:52;7.20;99.90
75262;DHT22;63859;51.064;4.580;2024-03-08T09:53:18;7.30;99.90
75262;DHT22;63859;51.064;4.580;2024-03-08T09:55:44;7.30;99.90
75262;DHT22;63859;51.064;4.580;2024-03-08T10:00:53;7.50;99.90
75262;DHT22;63859;51.064;4.580;2024-03-08T10:03:19;7.60;99.90
75262;DHT22;63859;51.064;4.580;2024-03-08T10:05:45;7.60;99.90
75262;DHT22;63859;51.064;4.580;2024-03-08T10:08:12;7.70;99.90
75262;DHT22;63859;51.064;4.580;2024-03-08T10:10:39;7.80;99.90
75262;DHT22;63859;51.064;4.580;2024-03-08T10:15:35;7.90;99.90
75262;DHT22;63859;51.064;4.580;2024-03-08T10:18:01;7.90;99.90
75262;DHT22;63859;51.064;4.580;2024-03-08T10:20:29;8.00;99.90
75262;DHT22;63859;51.064;4.580;2024-03-08T10:25:25;8.30;99.90
75262;DHT22;63859;51.064;4.580;2024-03-08T10:27:51;8.20;99.90
75262;DHT22;63859;51.064;4.580;2024-03-08T10:30:17;8.30;99.90
75262;DHT22;63859;51.064;4.580;2024-03-08T10:35:14;8.50;99.90
75262;DHT22;63859;51.064;4.580;2024-03-08T10:37:47;8.50;99.90
75262;DHT22;63859;51.064;4.580;2024-03-08T10:42:53;8.80;99.90
75262;DHT22;63859;51.064;4.580;2024-03-08T10:45:38;8.90;99.90
75262;DHT22;63859;51.064;4.580;2024-03-08T10:50:59;9.10;99.90
75262;DHT22;63859;51.064;4.580;2024-03-08T10:53:28;9.20;99.90
75262;DHT22;63859;51.064;4.580;2024-03-08T10:55:56;9.30;99.90
75262;DHT22;63859;51.064;4.580;2024-03-08T10:58:25;9.40;99.90
75262;DHT22;63859;51.064;4.580;2024-03-08T11:00:57;9.50;99.90
75262;DHT22;63859;51.064;4.580;2024-03-08T11:08:40;9.70;99.90
75262;DHT22;63859;51.064;4.580;2024-03-08T11:11:30;9.80;99.90
75262;DHT22;63859;51.064;4.580;2024-03-08T11:13:56;10.00;99.90
75262;DHT22;63859;51.064;4.580;2024-03-08T11:19:01;10.30;99.90
75262;DHT22;63859;51.064;4.580;2024-03-08T11:21:33;10.40;99.90
75262;DHT22;63859;51.064;4.580;2024-03-08T11:26:31;10.60;99.90
75262;DHT22;63859;51.064;4.580;2024-03-08T11:31:43;10.90;99.90
75262;DHT22;63859;51.064;4.580;2024-03-08T11:34:17;11.00;99.90
75262;DHT22;63859;51.064;4.580;2024-03-08T11:36:47;11.10;99.90
75262;DHT22;63859;51.064;4.580;2024-03-08T11:39:13;11.30;99.90
75262;DHT22;63859;51.064;4.580;2024-03-08T11:41:40;11.50;99.90
75262;DHT22;63859;51.064;4.580;2024-03-08T11:44:07;11.70;99.90
75262;DHT22;63859;51.064;4.580;2024-03-08T11:46:35;11.70;99.90
75262;DHT22;63859;51.064;4.580;2024-03-08T11:49:00;11.80;99.90
75262;DHT22;63859;51.064;4.580;2024-03-08T11:51:26;11.90;99.90
75262;DHT22;63859;51.064;4.580;2024-03-08T11:53:52;12.00;99.90
75262;DHT22;63859;51.064;4.580;2024-03-08T11:56:18;12.30;99.90
75262;DHT22;63859;51.064;4.580;2024-03-08T11:58:56;12.30;99.90
75262;DHT22;63859;51.064;4.580;2024-03-08T12:01:23;12.30;99.90
75262;DHT22;63859;51.064;4.580;2024-03-08T12:03:56;12.40;99.90
75262;DHT22;63859;51.064;4.580;2024-03-08T12:06:26;12.50;99.90
75262;DHT22;63859;51.064;4.580;2024-03-08T12:08:52;12.60;99.90
75262;DHT22;63859;51.064;4.580;2024-03-08T12:11:22;12.80;99.90
75262;DHT22;63859;51.064;4.580;2024-03-08T12:13:49;13.00;99.90
75262;DHT22;63859;51.064;4.580;2024-03-08T12:16:17;12.90;99.90
75262;DHT22;63859;51.064;4.580;2024-03-08T12:18:44;12.90;99.90
75262;DHT22;63859;51.064;4.580;2024-03-08T12:21:11;13.00;99.90
75262;DHT22;63859;51.064;4.580;2024-03-08T12:23:39;13.20;99.90
75262;DHT22;63859;51.064;4.580;2024-03-08T12:26:15;13.20;99.90
75262;DHT22;63859;51.064;4.580;2024-03-08T12:31:12;13.30;99.90
75262;DHT22;63859;51.064;4.580;2024-03-08T12:33:53;13.60;99.90
75262;DHT22;63859;51.064;4.580;2024-03-08T12:36:20;13.60;99.90
75262;DHT22;63859;51.064;4.580;2024-03-08T12:38:47;13.60;99.90
75262;DHT22;63859;51.064;4.580;2024-03-08T12:41:17;13.60;99.90
75262;DHT22;63859;51.064;4.580;2024-03-08T12:43:44;13.80;99.90
75262;DHT22;63859;51.064;4.580;2024-03-08T12:46:20;14.00;99.90
75262;DHT22;63859;51.064;4.580;2024-03-08T12:48:46;14.30;99.90
75262;DHT22;63859;51.064;4.580;2024-03-08T12:51:16;14.40;99.90
75262;DHT22;63859;51.064;4.580;2024-03-08T12:53:43;14.60;99.90
75262;DHT22;63859;51.064;4.580;2024-03-08T12:56:10;14.50;99.90
75262;DHT22;63859;51.064;4.580;2024-03-08T12:58:36;14.50;99.90
75262;DHT22;63859;51.064;4.580;2024-03-08T13:01:03;14.50;99.90
75262;DHT22;63859;51.064;4.580;2024-03-08T13:03:34;14.60;99.90
75262;DHT22;63859;51.064;4.580;2024-03-08T13:06:04;14.60;99.90
75262;DHT22;63859;51.064;4.580;2024-03-08T13:08:37;14.50;99.90
75262;DHT22;63859;51.064;4.580;2024-03-08T13:11:06;14.50;99.90
75262;DHT22;63859;51.064;4.580;2024-03-08T13:13:37;14.70;99.90
75262;DHT22;63859;51.064;4.580;2024-03-08T13:16:06;15.00;99.90
75262;DHT22;63859;51.064;4.580;2024-03-08T13:18:34;15.30;99.90
75262;DHT22;63859;51.064;4.580;2024-03-08T13:21:00;15.40;99.90
75262;DHT22;63859;51.064;4.580;2024-03-08T13:23:30;15.40;99.90
75262;DHT22;63859;51.064;4.580;2024-03-08T13:25:56;15.70;99.90
75262;DHT22;63859;51.064;4.580;2024-03-08T13:28:22;15.70;99.90
75262;DHT22;63859;51.064;4.580;2024-03-08T13:30:53;15.80;99.90
75262;DHT22;63859;51.064;4.580;2024-03-08T13:33:19;15.80;99.90
75262;DHT22;63859;51.064;4.580;2024-03-08T13:35:46;15.70;99.90
75262;DHT22;63859;51.064;4.580;2024-03-08T13:38:12;15.90;99.90
75262;DHT22;63859;51.064;4.580;2024-03-08T13:40:39;16.00;99.90
75262;DHT22;63859;51.064;4.580;2024-03-08T13:43:06;16.10;99.90
75262;DHT22;63859;51.064;4.580;2024-03-08T13:45:34;16.00;99.90
75262;DHT22;63859;51.064;4.580;2024-03-08T13:48:04;15.80;99.90
75262;DHT22;63859;51.064;4.580;2024-03-08T13:50:30;15.80;99.90
75262;DHT22;63859;51.064;4.580;2024-03-08T13:55:23;16.40;99.90
75262;DHT22;63859;51.064;4.580;2024-03-08T13:57:50;16.20;99.90
75262;DHT22;63859;51.064;4.580;2024-03-08T14:00:17;16.30;99.90
75262;DHT22;63859;51.064;4.580;2024-03-08T14:02:42;16.40;99.90
75262;DHT22;63859;51.064;4.580;2024-03-08T14:05:08;16.50;99.90
75262;DHT22;63859;51.064;4.580;2024-03-08T14:07:37;16.60;99.90
75262;DHT22;63859;51.064;4.580;2024-03-08T14:10:03;16.70;99.90
75262;DHT22;63859;51.064;4.580;2024-03-08T14:12:30;17.00;99.90
75262;DHT22;63859;51.064;4.580;2024-03-08T14:14:56;17.10;99.90
75262;DHT22;63859;51.064;4.580;2024-03-08T14:17:27;17.40;99.90
75262;DHT22;63859;51.064;4.580;2024-03-08T14:19:56;17.50;99.90
75262;DHT22;63859;51.064;4.580;2024-03-08T14:22:22;17.10;99.90
75262;DHT22;63859;51.064;4.580;2024-03-08T14:24:49;17.20;99.90
75262;DHT22;63859;51.064;4.580;2024-03-08T14:27:15;17.10;99.90
75262;DHT22;63859;51.064;4.580;2024-03-08T14:29:44;17.00;99.90
75262;DHT22;63859;51.064;4.580;2024-03-08T14:32:10;16.90;99.90
75262;DHT22;63859;51.064;4.580;2024-03-08T14:34:36;17.00;99.90
75262;DHT22;63859;51.064;4.580;2024-03-08T14:37:02;16.80;99.90
75262;DHT22;63859;51.064;4.580;2024-03-08T14:39:31;16.70;99.90
75262;DHT22;63859;51.064;4.580;2024-03-08T14:41:59;16.50;99.90
75262;DHT22;63859;51.064;4.580;2024-03-08T14:44:25;16.60;99.90
75262;DHT22;63859;51.064;4.580;2024-03-08T14:46:52;16.60;99.90
75262;DHT22;63859;51.064;4.580;2024-03-08T14:49:18;16.60;99.90
75262;DHT22;63859;51.064;4.580;2024-03-08T14:51:47;16.60;99.90
75262;DHT22;63859;51.064;4.580;2024-03-08T14:54:12;16.50;99.90
75262;DHT22;63859;51.064;4.580;2024-03-08T14:59:07;16.50;99.90
75262;DHT22;63859;51.064;4.580;2024-03-08T15:01:34;16.30;99.90
75262;DHT22;63859;51.064;4.580;2024-03-08T15:06:37;16.20;99.90
75262;DHT22;63859;51.064;4.580;2024-03-08T15:09:04;16.20;99.90
75262;DHT22;63859;51.064;4.580;2024-03-08T15:11:40;16.10;99.90
75262;DHT22;63859;51.064;4.580;2024-03-08T15:14:07;15.70;99.90
75262;DHT22;63859;51.064;4.580;2024-03-08T15:16:37;15.30;99.90
75262;DHT22;63859;51.064;4.580;2024-03-08T15:19:05;14.80;99.90
75262;DHT22;63859;51.064;4.580;2024-03-08T15:21:31;14.40;99.90
75262;DHT22;63859;51.064;4.580;2024-03-08T15:23:57;14.00;99.90
75262;DHT22;63859;51.064;4.580;2024-03-08T15:26:22;13.70;99.90
75262;DHT22;63859;51.064;4.580;2024-03-08T15:28:49;13.60;99.90
75262;DHT22;63859;51.064;4.580;2024-03-08T15:31:17;13.50;99.90
75262;DHT22;63859;51.064;4.580;2024-03-08T15:33:46;13.40;99.90
75262;DHT22;63859;51.064;4.580;2024-03-08T15:36:17;13.30;99.90
75262;DHT22;63859;51.064;4.580;2024-03-08T15:38:46;13.30;99.90
75262;DHT22;63859;51.064;4.580;2024-03-08T15:41:16;13.20;99.90
75262;DHT22;63859;51.064;4.580;2024-03-08T15:43:43;13.20;99.90
75262;DHT22;63859;51.064;4.580;2024-03-08T15:51:05;13.20;99.90
75262;DHT22;63859;51.064;4.580;2024-03-08T15:53:32;13.40;99.90
75262;DHT22;63859;51.064;4.580;2024-03-08T15:55:58;13.70;99.90
75262;DHT22;63859;51.064;4.580;2024-03-08T15:58:25;14.10;99.90
75262;DHT22;63859;51.064;4.580;2024-03-08T16:00:51;14.60;99.90
75262;DHT22;63859;51.064;4.580;2024-03-08T16:03:18;14.90;99.90
75262;DHT22;63859;51.064;4.580;2024-03-08T16:05:45;15.30;99.90
75262;DHT22;63859;51.064;4.580;2024-03-08T16:08:12;15.60;99.90
75262;DHT22;63859;51.064;4.580;2024-03-08T16:13:19;15.90;99.90
75262;DHT22;63859;51.064;4.580;2024-03-08T16:18:12;15.30;99.90
75262;DHT22;63859;51.064;4.580;2024-03-08T16:20:39;14.40;99.90
75262;DHT22;63859;51.064;4.580;2024-03-08T16:23:06;14.00;99.90
75262;DHT22;63859;51.064;4.580;2024-03-08T16:27:58;14.00;99.90
75262;DHT22;63859;51.064;4.580;2024-03-08T16:30:24;14.40;99.90
75262;DHT22;63859;51.064;4.580;2024-03-08T16:32:52;14.70;99.90
75262;DHT22;63859;51.064;4.580;2024-03-08T16:35:18;15.00;99.90
75262;DHT22;63859;51.064;4.580;2024-03-08T16:37:44;15.10;99.90
75262;DHT22;63859;51.064;4.580;2024-03-08T16:40:10;15.00;99.90
75262;DHT22;63859;51.064;4.580;2024-03-08T16:42:49;14.80;99.90
75262;DHT22;63859;51.064;4.580;2024-03-08T16:45:21;13.70;99.90
75262;DHT22;63859;51.064;4.580;2024-03-08T16:47:48;13.70;99.90
75262;DHT22;63859;51.064;4.580;2024-03-08T16:50:17;13.30;99.90
75262;DHT22;63859;51.064;4.580;2024-03-08T16:52:44;12.90;99.90
75262;DHT22;63859;51.064;4.580;2024-03-08T16:55:11;12.60;99.90
75262;DHT22;63859;51.064;4.580;2024-03-08T16:57:49;12.40;99.90
75262;DHT22;63859;51.064;4.580;2024-03-08T17:00:19;12.20;99.90
75262;DHT22;63859;51.064;4.580;2024-03-08T17:02:53;12.00;99.90
75262;DHT22;63859;51.064;4.580;2024-03-08T17:05:19;11.90;99.90
75262;DHT22;63859;51.064;4.580;2024-03-08T17:07:49;11.60;99.90
75262;DHT22;63859;51.064;4.580;2024-03-08T17:12:47;11.50;99.90
75262;DHT22;63859;51.064;4.580;2024-03-08T17:15:15;11.40;99.90